sensor_id;sensor_type;location;lat;lon;timestamp;P1;durP1;ratioP1;P2;durP2;ratioP2
65377;SDS011;51982;51.042;13.806;2023-04-01T00:02:06;0.43;;;0.40;;
65377;SDS011;51982;51.042;13.806;2023-04-01T00:04:31;1.73;;;0.57;;
65377;SDS011;51982;51.042;13.806;2023-04-01T00:06:57;1.77;;;0.70;;
65377;SDS011;51982;51.042;13.806;2023-04-01T00:09:22;2.15;;;0.68;;
65377;SDS011;51982;51.042;13.806;2023-04-01T00:11:47;1.95;;;0.63;;
65377;SDS011;51982;51.042;13.806;2023-04-01T00:14:13;0.93;;;0.60;;
65377;SDS011;51982;51.042;13.806;2023-04-01T00:16:38;1.93;;;0.70;;
65377;SDS011;51982;51.042;13.806;2023-04-01T00:19:03;1.20;;;0.50;;
65377;SDS011;51982;51.042;13.806;2023-04-01T00:21:28;1.50;;;0.60;;
65377;SDS011;51982;51.042;13.806;2023-04-01T00:23:54;0.95;;;0.47;;
65377;SDS011;51982;51.042;13.806;2023-04-01T00:26:19;1.92;;;0.55;;
65377;SDS011;51982;51.042;13.806;2023-04-01T00:28:46;1.50;;;0.60;;
65377;SDS011;51982;51.042;13.806;2023-04-01T00:31:12;1.98;;;0.60;;
65377;SDS011;51982;51.042;13.806;2023-04-01T00:33:39;2.70;;;0.60;;
65377;SDS011;51982;51.042;13.806;2023-04-01T00:36:16;1.42;;;0.68;;
65377;SDS011;51982;51.042;13.806;2023-04-01T00:38:42;1.23;;;0.50;;
65377;SDS011;51982;51.042;13.806;2023-04-01T00:41:09;3.65;;;0.40;;
65377;SDS011;51982;51.042;13.806;2023-04-01T00:43:40;1.30;;;0.60;;
65377;SDS011;51982;51.042;13.806;2023-04-01T00:46:10;2.03;;;0.70;;
65377;SDS011;51982;51.042;13.806;2023-04-01T00:48:36;1.38;;;0.50;;
65377;SDS011;51982;51.042;13.806;2023-04-01T00:51:05;1.95;;;0.57;;
65377;SDS011;51982;51.042;13.806;2023-04-01T00:53:34;1.15;;;0.50;;
65377;SDS011;51982;51.042;13.806;2023-04-01T00:56:07;1.33;;;0.60;;
65377;SDS011;51982;51.042;13.806;2023-04-01T00:58:38;1.92;;;0.50;;
65377;SDS011;51982;51.042;13.806;2023-04-01T01:01:08;1.33;;;0.60;;
65377;SDS011;51982;51.042;13.806;2023-04-01T01:03:34;1.60;;;0.70;;
65377;SDS011;51982;51.042;13.806;2023-04-01T01:11:26;3.25;;;0.70;;
65377;SDS011;51982;51.042;13.806;2023-04-01T01:14:09;3.78;;;0.60;;
65377;SDS011;51982;51.042;13.806;2023-04-01T01:16:44;2.33;;;0.60;;
65377;SDS011;51982;51.042;13.806;2023-04-01T01:22:31;1.88;;;0.60;;
65377;SDS011;51982;51.042;13.806;2023-04-01T01:25:13;2.40;;;0.80;;
65377;SDS011;51982;51.042;13.806;2023-04-01T01:27:49;2.47;;;0.70;;
65377;SDS011;51982;51.042;13.806;2023-04-01T01:30:30;0.90;;;0.30;;
65377;SDS011;51982;51.042;13.806;2023-04-01T01:35:49;2.00;;;0.60;;
65377;SDS011;51982;51.042;13.806;2023-04-01T01:38:19;1.13;;;0.40;;
65377;SDS011;51982;51.042;13.806;2023-04-01T01:40:51;2.17;;;0.70;;
65377;SDS011;51982;51.042;13.806;2023-04-01T01:43:19;4.47;;;0.70;;
65377;SDS011;51982;51.042;13.806;2023-04-01T01:45:49;1.35;;;0.32;;
65377;SDS011;51982;51.042;13.806;2023-04-01T01:48:17;1.85;;;0.75;;
65377;SDS011;51982;51.042;13.806;2023-04-01T01:50:44;2.22;;;0.60;;
65377;SDS011;51982;51.042;13.806;2023-04-01T01:53:12;3.13;;;0.63;;
65377;SDS011;51982;51.042;13.806;2023-04-01T01:55:39;4.22;;;0.60;;
65377;SDS011;51982;51.042;13.806;2023-04-01T01:58:27;1.85;;;0.60;;
65377;SDS011;51982;51.042;13.806;2023-04-01T02:01:12;1.00;;;0.50;;
65377;SDS011;51982;51.042;13.806;2023-04-01T02:03:40;1.30;;;0.60;;
65377;SDS011;51982;51.042;13.806;2023-04-01T02:06:09;2.25;;;0.65;;
65377;SDS011;51982;51.042;13.806;2023-04-01T02:08:44;5.63;;;0.55;;
65377;SDS011;51982;51.042;13.806;2023-04-01T02:38:47;1.27;;;0.57;;
65377;SDS011;51982;51.042;13.806;2023-04-01T02:41:16;1.55;;;0.43;;
65377;SDS011;51982;51.042;13.806;2023-04-01T02:43:42;1.73;;;0.70;;
65377;SDS011;51982;51.042;13.806;2023-04-01T02:46:07;3.60;;;0.90;;
65377;SDS011;51982;51.042;13.806;2023-04-01T02:48:32;1.98;;;0.60;;
65377;SDS011;51982;51.042;13.806;2023-04-01T02:51:00;1.35;;;0.60;;
65377;SDS011;51982;51.042;13.806;2023-04-01T02:53:26;2.70;;;0.47;;
65377;SDS011;51982;51.042;13.806;2023-04-01T02:55:51;3.10;;;0.55;;
65377;SDS011;51982;51.042;13.806;2023-04-01T02:58:17;2.30;;;0.77;;
65377;SDS011;51982;51.042;13.806;2023-04-01T03:00:43;1.85;;;0.60;;
65377;SDS011;51982;51.042;13.806;2023-04-01T03:03:08;1.55;;;0.60;;
65377;SDS011;51982;51.042;13.806;2023-04-01T03:05:34;2.03;;;0.60;;
65377;SDS011;51982;51.042;13.806;2023-04-01T03:07:59;3.30;;;0.70;;
65377;SDS011;51982;51.042;13.806;2023-04-01T03:10:25;3.58;;;0.82;;
65377;SDS011;51982;51.042;13.806;2023-04-01T03:12:50;3.83;;;0.88;;
65377;SDS011;51982;51.042;13.806;2023-04-01T03:15:15;3.72;;;0.75;;
65377;SDS011;51982;51.042;13.806;2023-04-01T03:17:41;3.13;;;0.63;;
65377;SDS011;51982;51.042;13.806;2023-04-01T03:20:07;4.68;;;0.80;;
65377;SDS011;51982;51.042;13.806;2023-04-01T03:22:34;1.88;;;0.50;;
65377;SDS011;51982;51.042;13.806;2023-04-01T03:25:00;2.67;;;0.60;;
65377;SDS011;51982;51.042;13.806;2023-04-01T03:27:25;3.33;;;0.80;;
65377;SDS011;51982;51.042;13.806;2023-04-01T03:29:51;1.60;;;0.67;;
65377;SDS011;51982;51.042;13.806;2023-04-01T03:32:16;1.70;;;0.63;;
65377;SDS011;51982;51.042;13.806;2023-04-01T03:34:41;2.45;;;0.60;;
65377;SDS011;51982;51.042;13.806;2023-04-01T03:37:06;1.83;;;1.10;;
65377;SDS011;51982;51.042;13.806;2023-04-01T03:39:32;2.37;;;0.43;;
65377;SDS011;51982;51.042;13.806;2023-04-01T03:41:57;1.65;;;0.70;;
65377;SDS011;51982;51.042;13.806;2023-04-01T03:44:22;3.63;;;0.80;;
65377;SDS011;51982;51.042;13.806;2023-04-01T03:46:47;1.65;;;0.70;;
65377;SDS011;51982;51.042;13.806;2023-04-01T04:06:24;1.33;;;0.70;;
65377;SDS011;51982;51.042;13.806;2023-04-01T04:08:50;1.88;;;0.80;;
65377;SDS011;51982;51.042;13.806;2023-04-01T04:11:15;3.20;;;0.98;;
65377;SDS011;51982;51.042;13.806;2023-04-01T04:13:42;3.35;;;0.80;;
65377;SDS011;51982;51.042;13.806;2023-04-01T04:16:08;1.77;;;0.60;;
65377;SDS011;51982;51.042;13.806;2023-04-01T04:18:34;4.15;;;0.82;;
65377;SDS011;51982;51.042;13.806;2023-04-01T04:21:00;2.13;;;0.63;;
65377;SDS011;51982;51.042;13.806;2023-04-01T04:23:25;1.95;;;0.70;;
65377;SDS011;51982;51.042;13.806;2023-04-01T04:25:58;2.35;;;0.60;;
65377;SDS011;51982;51.042;13.806;2023-04-01T04:28:31;2.13;;;0.60;;
65377;SDS011;51982;51.042;13.806;2023-04-01T04:30:57;5.55;;;0.60;;
65377;SDS011;51982;51.042;13.806;2023-04-01T04:33:23;4.40;;;0.60;;
65377;SDS011;51982;51.042;13.806;2023-04-01T04:35:49;3.60;;;0.60;;
65377;SDS011;51982;51.042;13.806;2023-04-01T04:38:14;4.10;;;0.82;;
65377;SDS011;51982;51.042;13.806;2023-04-01T04:40:40;3.03;;;0.70;;
65377;SDS011;51982;51.042;13.806;2023-04-01T04:43:06;5.15;;;1.00;;
65377;SDS011;51982;51.042;13.806;2023-04-01T04:45:34;2.28;;;0.50;;
65377;SDS011;51982;51.042;13.806;2023-04-01T04:47:59;1.25;;;0.50;;
65377;SDS011;51982;51.042;13.806;2023-04-01T04:50:24;3.33;;;0.75;;
65377;SDS011;51982;51.042;13.806;2023-04-01T04:52:50;1.15;;;0.52;;
65377;SDS011;51982;51.042;13.806;2023-04-01T04:55:16;3.75;;;0.68;;
65377;SDS011;51982;51.042;13.806;2023-04-01T04:57:41;3.95;;;0.80;;
65377;SDS011;51982;51.042;13.806;2023-04-01T05:00:06;2.85;;;0.70;;
65377;SDS011;51982;51.042;13.806;2023-04-01T05:02:32;1.30;;;0.65;;
65377;SDS011;51982;51.042;13.806;2023-04-01T05:04:58;4.78;;;0.80;;
65377;SDS011;51982;51.042;13.806;2023-04-01T05:07:23;2.00;;;0.70;;
65377;SDS011;51982;51.042;13.806;2023-04-01T05:09:48;3.60;;;0.53;;
65377;SDS011;51982;51.042;13.806;2023-04-01T05:12:13;1.92;;;0.60;;
65377;SDS011;51982;51.042;13.806;2023-04-01T05:14:39;3.28;;;0.70;;
65377;SDS011;51982;51.042;13.806;2023-04-01T05:17:07;2.97;;;0.63;;
65377;SDS011;51982;51.042;13.806;2023-04-01T05:19:34;0.52;;;0.50;;
65377;SDS011;51982;51.042;13.806;2023-04-01T05:21:59;3.70;;;0.52;;
65377;SDS011;51982;51.042;13.806;2023-04-01T05:24:25;2.00;;;0.60;;
65377;SDS011;51982;51.042;13.806;2023-04-01T05:26:50;3.67;;;0.75;;
65377;SDS011;51982;51.042;13.806;2023-04-01T05:29:15;0.90;;;0.40;;
65377;SDS011;51982;51.042;13.806;2023-04-01T05:31:40;1.60;;;0.50;;
65377;SDS011;51982;51.042;13.806;2023-04-01T05:34:06;3.57;;;0.60;;
65377;SDS011;51982;51.042;13.806;2023-04-01T05:36:31;3.80;;;0.70;;
65377;SDS011;51982;51.042;13.806;2023-04-01T05:38:56;2.33;;;0.70;;
65377;SDS011;51982;51.042;13.806;2023-04-01T05:41:22;4.00;;;0.70;;
65377;SDS011;51982;51.042;13.806;2023-04-01T05:43:47;1.58;;;0.85;;
65377;SDS011;51982;51.042;13.806;2023-04-01T05:46:12;1.42;;;0.70;;
65377;SDS011;51982;51.042;13.806;2023-04-01T05:48:37;1.10;;;0.50;;
65377;SDS011;51982;51.042;13.806;2023-04-01T05:51:03;1.48;;;0.50;;
65377;SDS011;51982;51.042;13.806;2023-04-01T05:53:29;3.25;;;0.73;;
65377;SDS011;51982;51.042;13.806;2023-04-01T05:55:54;2.90;;;0.80;;
65377;SDS011;51982;51.042;13.806;2023-04-01T05:58:19;4.63;;;0.85;;
65377;SDS011;51982;51.042;13.806;2023-04-01T06:00:44;3.35;;;0.70;;
65377;SDS011;51982;51.042;13.806;2023-04-01T06:03:10;1.73;;;0.60;;
65377;SDS011;51982;51.042;13.806;2023-04-01T06:05:37;3.92;;;0.80;;
65377;SDS011;51982;51.042;13.806;2023-04-01T06:08:12;3.85;;;0.68;;
65377;SDS011;51982;51.042;13.806;2023-04-01T06:10:59;1.83;;;0.77;;
65377;SDS011;51982;51.042;13.806;2023-04-01T06:13:43;3.40;;;0.77;;
65377;SDS011;51982;51.042;13.806;2023-04-01T06:22:32;1.52;;;0.60;;
65377;SDS011;51982;51.042;13.806;2023-04-01T06:25:17;2.83;;;0.60;;
65377;SDS011;51982;51.042;13.806;2023-04-01T06:35:45;1.85;;;0.73;;
65377;SDS011;51982;51.042;13.806;2023-04-01T06:38:34;3.85;;;0.73;;
65377;SDS011;51982;51.042;13.806;2023-04-01T06:41:31;3.55;;;0.68;;
65377;SDS011;51982;51.042;13.806;2023-04-01T06:44:34;2.67;;;0.73;;
65377;SDS011;51982;51.042;13.806;2023-04-01T06:47:21;2.50;;;0.70;;
65377;SDS011;51982;51.042;13.806;2023-04-01T06:52:57;3.40;;;0.77;;
65377;SDS011;51982;51.042;13.806;2023-04-01T06:58:11;2.15;;;0.73;;
65377;SDS011;51982;51.042;13.806;2023-04-01T07:00:48;3.40;;;0.50;;
65377;SDS011;51982;51.042;13.806;2023-04-01T07:03:21;4.07;;;0.60;;
65377;SDS011;51982;51.042;13.806;2023-04-01T07:05:56;1.30;;;0.47;;
65377;SDS011;51982;51.042;13.806;2023-04-01T07:08:27;1.50;;;0.70;;
65377;SDS011;51982;51.042;13.806;2023-04-01T07:10:56;1.52;;;0.60;;
65377;SDS011;51982;51.042;13.806;2023-04-01T07:13:27;2.15;;;1.15;;
65377;SDS011;51982;51.042;13.806;2023-04-01T07:15:59;2.28;;;0.50;;
65377;SDS011;51982;51.042;13.806;2023-04-01T07:18:36;0.57;;;0.40;;
65377;SDS011;51982;51.042;13.806;2023-04-01T07:21:10;1.58;;;0.73;;
65377;SDS011;51982;51.042;13.806;2023-04-01T07:23:48;2.20;;;0.73;;
65377;SDS011;51982;51.042;13.806;2023-04-01T07:26:23;2.70;;;0.50;;
65377;SDS011;51982;51.042;13.806;2023-04-01T07:28:51;1.55;;;0.38;;
65377;SDS011;51982;51.042;13.806;2023-04-01T07:39:28;3.70;;;0.40;;
65377;SDS011;51982;51.042;13.806;2023-04-01T07:42:05;3.33;;;0.63;;
65377;SDS011;51982;51.042;13.806;2023-04-01T07:44:51;0.93;;;0.47;;
65377;SDS011;51982;51.042;13.806;2023-04-01T07:47:34;2.03;;;0.75;;
65377;SDS011;51982;51.042;13.806;2023-04-01T07:50:29;2.05;;;0.60;;
65377;SDS011;51982;51.042;13.806;2023-04-01T07:55:49;1.85;;;0.50;;
65377;SDS011;51982;51.042;13.806;2023-04-01T07:58:25;4.28;;;0.65;;
65377;SDS011;51982;51.042;13.806;2023-04-01T08:01:24;1.45;;;0.50;;
65377;SDS011;51982;51.042;13.806;2023-04-01T08:06:25;5.20;;;0.90;;
65377;SDS011;51982;51.042;13.806;2023-04-01T08:09:10;2.10;;;0.60;;
65377;SDS011;51982;51.042;13.806;2023-04-01T08:12:02;1.30;;;0.50;;
65377;SDS011;51982;51.042;13.806;2023-04-01T08:17:32;0.55;;;0.30;;
65377;SDS011;51982;51.042;13.806;2023-04-01T08:20:32;3.85;;;0.82;;
65377;SDS011;51982;51.042;13.806;2023-04-01T08:23:07;1.52;;;0.50;;
65377;SDS011;51982;51.042;13.806;2023-04-01T08:25:39;2.20;;;0.50;;
65377;SDS011;51982;51.042;13.806;2023-04-01T08:28:11;2.00;;;0.43;;
65377;SDS011;51982;51.042;13.806;2023-04-01T08:30:43;1.02;;;0.47;;
65377;SDS011;51982;51.042;13.806;2023-04-01T08:33:21;1.25;;;0.60;;
65377;SDS011;51982;51.042;13.806;2023-04-01T08:35:53;2.92;;;0.60;;
65377;SDS011;51982;51.042;13.806;2023-04-01T08:38:28;1.95;;;0.40;;
65377;SDS011;51982;51.042;13.806;2023-04-01T08:41:00;1.27;;;0.50;;
65377;SDS011;51982;51.042;13.806;2023-04-01T08:52:15;2.80;;;1.33;;
65377;SDS011;51982;51.042;13.806;2023-04-01T08:54:56;0.93;;;0.40;;
65377;SDS011;51982;51.042;13.806;2023-04-01T08:57:39;0.98;;;0.35;;
65377;SDS011;51982;51.042;13.806;2023-04-01T09:00:13;1.30;;;0.57;;
65377;SDS011;51982;51.042;13.806;2023-04-01T09:14:12;2.00;;;0.68;;
65377;SDS011;51982;51.042;13.806;2023-04-01T09:20:14;2.00;;;0.80;;
65377;SDS011;51982;51.042;13.806;2023-04-01T09:23:06;1.00;;;0.70;;
65377;SDS011;51982;51.042;13.806;2023-04-01T09:26:07;2.45;;;0.80;;
65377;SDS011;51982;51.042;13.806;2023-04-01T09:34:08;2.60;;;0.52;;
65377;SDS011;51982;51.042;13.806;2023-04-01T09:39:54;0.65;;;0.50;;
65377;SDS011;51982;51.042;13.806;2023-04-01T09:48:31;2.67;;;0.60;;
65377;SDS011;51982;51.042;13.806;2023-04-01T09:51:22;0.93;;;0.50;;
65377;SDS011;51982;51.042;13.806;2023-04-01T09:53:52;2.05;;;0.60;;
65377;SDS011;51982;51.042;13.806;2023-04-01T09:56:49;0.57;;;0.43;;
65377;SDS011;51982;51.042;13.806;2023-04-01T10:05:44;0.80;;;0.65;;
65377;SDS011;51982;51.042;13.806;2023-04-01T10:08:36;3.42;;;0.60;;
65377;SDS011;51982;51.042;13.806;2023-04-01T10:14:07;0.93;;;0.40;;
65377;SDS011;51982;51.042;13.806;2023-04-01T10:22:37;3.17;;;0.70;;
65377;SDS011;51982;51.042;13.806;2023-04-01T10:30:42;3.15;;;0.70;;
65377;SDS011;51982;51.042;13.806;2023-04-01T10:33:36;0.60;;;0.38;;
65377;SDS011;51982;51.042;13.806;2023-04-01T10:36:25;1.70;;;0.55;;
65377;SDS011;51982;51.042;13.806;2023-04-01T10:47:58;2.05;;;0.65;;
65377;SDS011;51982;51.042;13.806;2023-04-01T10:53:38;1.38;;;0.50;;
65377;SDS011;51982;51.042;13.806;2023-04-01T11:02:06;0.88;;;0.40;;
65377;SDS011;51982;51.042;13.806;2023-04-01T11:24:50;0.80;;;0.40;;
65377;SDS011;51982;51.042;13.806;2023-04-01T11:27:42;3.25;;;0.70;;
65377;SDS011;51982;51.042;13.806;2023-04-01T11:30:40;0.85;;;0.52;;
65377;SDS011;51982;51.042;13.806;2023-04-01T11:33:16;1.33;;;0.50;;
65377;SDS011;51982;51.042;13.806;2023-04-01T11:38:42;1.10;;;0.50;;
65377;SDS011;51982;51.042;13.806;2023-04-01T11:41:31;1.48;;;0.60;;
65377;SDS011;51982;51.042;13.806;2023-04-01T11:44:04;1.67;;;0.28;;
65377;SDS011;51982;51.042;13.806;2023-04-01T11:54:39;0.25;;;0.25;;
65377;SDS011;51982;51.042;13.806;2023-04-01T12:08:24;1.05;;;0.55;;
65377;SDS011;51982;51.042;13.806;2023-04-01T12:11:06;0.88;;;0.50;;
65377;SDS011;51982;51.042;13.806;2023-04-01T12:21:36;0.47;;;0.38;;
65377;SDS011;51982;51.042;13.806;2023-04-01T12:27:27;0.50;;;0.40;;
65377;SDS011;51982;51.042;13.806;2023-04-01T12:30:16;0.80;;;0.50;;
65377;SDS011;51982;51.042;13.806;2023-04-01T12:35:42;0.77;;;0.50;;
65377;SDS011;51982;51.042;13.806;2023-04-01T12:38:43;4.10;;;0.60;;
65377;SDS011;51982;51.042;13.806;2023-04-01T12:44:42;2.95;;;0.80;;
65377;SDS011;51982;51.042;13.806;2023-04-01T12:50:01;1.27;;;0.60;;
65377;SDS011;51982;51.042;13.806;2023-04-01T12:52:58;0.80;;;0.60;;
65377;SDS011;51982;51.042;13.806;2023-04-01T12:58:27;1.95;;;0.50;;
65377;SDS011;51982;51.042;13.806;2023-04-01T13:04:18;1.42;;;0.70;;
65377;SDS011;51982;51.042;13.806;2023-04-01T13:09:45;1.35;;;0.70;;
65377;SDS011;51982;51.042;13.806;2023-04-01T13:21:30;0.80;;;0.57;;
65377;SDS011;51982;51.042;13.806;2023-04-01T13:27:14;0.93;;;0.65;;
65377;SDS011;51982;51.042;13.806;2023-04-01T13:32:57;0.55;;;0.45;;
65377;SDS011;51982;51.042;13.806;2023-04-01T13:43:51;1.83;;;0.63;;
65377;SDS011;51982;51.042;13.806;2023-04-01T13:46:51;0.73;;;0.50;;
65377;SDS011;51982;51.042;13.806;2023-04-01T13:49:31;0.38;;;0.20;;
65377;SDS011;51982;51.042;13.806;2023-04-01T13:58:27;1.17;;;0.45;;
65377;SDS011;51982;51.042;13.806;2023-04-01T14:01:04;1.08;;;0.40;;
65377;SDS011;51982;51.042;13.806;2023-04-01T14:04:09;0.30;;;0.30;;
65377;SDS011;51982;51.042;13.806;2023-04-01T14:12:59;0.30;;;0.30;;
65377;SDS011;51982;51.042;13.806;2023-04-01T14:15:41;0.20;;;0.17;;
65377;SDS011;51982;51.042;13.806;2023-04-01T14:18:30;1.13;;;0.22;;
65377;SDS011;51982;51.042;13.806;2023-04-01T14:40:45;0.88;;;0.50;;
65377;SDS011;51982;51.042;13.806;2023-04-01T14:43:34;0.82;;;0.50;;
65377;SDS011;51982;51.042;13.806;2023-04-01T14:46:31;0.65;;;0.60;;
65377;SDS011;51982;51.042;13.806;2023-04-01T14:49:21;0.88;;;0.50;;
65377;SDS011;51982;51.042;13.806;2023-04-01T14:51:55;1.55;;;0.40;;
65377;SDS011;51982;51.042;13.806;2023-04-01T14:54:33;1.95;;;0.30;;
65377;SDS011;51982;51.042;13.806;2023-04-01T14:57:12;1.25;;;0.45;;
65377;SDS011;51982;51.042;13.806;2023-04-01T15:00:09;0.50;;;0.40;;
65377;SDS011;51982;51.042;13.806;2023-04-01T15:02:42;0.30;;;0.30;;
65377;SDS011;51982;51.042;13.806;2023-04-01T15:10:35;0.10;;;0.10;;
65377;SDS011;51982;51.042;13.806;2023-04-01T15:13:46;0.30;;;0.30;;
65377;SDS011;51982;51.042;13.806;2023-04-01T15:16:18;0.30;;;0.30;;
65377;SDS011;51982;51.042;13.806;2023-04-01T15:19:00;0.75;;;0.35;;
65377;SDS011;51982;51.042;13.806;2023-04-01T15:24:35;0.20;;;0.15;;
65377;SDS011;51982;51.042;13.806;2023-04-01T15:32:51;0.35;;;0.30;;
65377;SDS011;51982;51.042;13.806;2023-04-01T15:38:17;1.08;;;0.90;;
65377;SDS011;51982;51.042;13.806;2023-04-01T15:41:09;0.55;;;0.30;;
65377;SDS011;51982;51.042;13.806;2023-04-01T15:46:13;0.55;;;0.40;;
65377;SDS011;51982;51.042;13.806;2023-04-01T15:54:38;0.38;;;0.30;;
65377;SDS011;51982;51.042;13.806;2023-04-01T15:57:20;0.20;;;0.20;;
65377;SDS011;51982;51.042;13.806;2023-04-01T16:02:40;0.65;;;0.35;;
65377;SDS011;51982;51.042;13.806;2023-04-01T16:10:38;1.25;;;0.50;;
65377;SDS011;51982;51.042;13.806;2023-04-01T16:13:24;1.00;;;0.50;;
65377;SDS011;51982;51.042;13.806;2023-04-01T16:16:07;3.33;;;1.33;;
65377;SDS011;51982;51.042;13.806;2023-04-01T16:18:52;0.50;;;0.40;;
65377;SDS011;51982;51.042;13.806;2023-04-01T16:21:45;0.93;;;0.50;;
65377;SDS011;51982;51.042;13.806;2023-04-01T16:24:33;0.30;;;0.30;;
65377;SDS011;51982;51.042;13.806;2023-04-01T16:29:57;0.52;;;0.45;;
65377;SDS011;51982;51.042;13.806;2023-04-01T16:32:49;0.20;;;0.20;;
65377;SDS011;51982;51.042;13.806;2023-04-01T16:35:30;0.30;;;0.30;;
65377;SDS011;51982;51.042;13.806;2023-04-01T16:41:12;0.40;;;0.20;;
65377;SDS011;51982;51.042;13.806;2023-04-01T16:46:35;0.73;;;0.30;;
65377;SDS011;51982;51.042;13.806;2023-04-01T16:51:37;0.85;;;0.70;;
65377;SDS011;51982;51.042;13.806;2023-04-01T16:54:14;1.45;;;0.60;;
65377;SDS011;51982;51.042;13.806;2023-04-01T16:57:03;1.10;;;0.70;;
65377;SDS011;51982;51.042;13.806;2023-04-01T16:59:44;1.52;;;0.70;;
65377;SDS011;51982;51.042;13.806;2023-04-01T17:02:20;1.05;;;0.50;;
65377;SDS011;51982;51.042;13.806;2023-04-01T17:21:25;1.67;;;0.80;;
65377;SDS011;51982;51.042;13.806;2023-04-01T17:27:21;0.68;;;0.60;;
65377;SDS011;51982;51.042;13.806;2023-04-01T17:33:07;1.25;;;0.85;;
65377;SDS011;51982;51.042;13.806;2023-04-01T17:35:59;1.15;;;0.80;;
65377;SDS011;51982;51.042;13.806;2023-04-01T17:38:43;1.70;;;1.00;;
65377;SDS011;51982;51.042;13.806;2023-04-01T17:41:40;1.83;;;0.98;;
65377;SDS011;51982;51.042;13.806;2023-04-01T17:44:21;2.58;;;1.20;;
65377;SDS011;51982;51.042;13.806;2023-04-01T17:47:01;7.35;;;3.30;;
65377;SDS011;51982;51.042;13.806;2023-04-01T17:49:53;4.43;;;2.17;;
65377;SDS011;51982;51.042;13.806;2023-04-01T17:52:43;3.97;;;1.50;;
65377;SDS011;51982;51.042;13.806;2023-04-01T17:58:50;3.20;;;2.08;;
65377;SDS011;51982;51.042;13.806;2023-04-01T18:01:45;3.85;;;2.45;;
65377;SDS011;51982;51.042;13.806;2023-04-01T18:04:26;2.80;;;1.60;;
65377;SDS011;51982;51.042;13.806;2023-04-01T18:07:06;4.95;;;2.40;;
65377;SDS011;51982;51.042;13.806;2023-04-01T18:15:19;6.53;;;3.10;;
65377;SDS011;51982;51.042;13.806;2023-04-01T18:17:55;4.57;;;2.40;;
65377;SDS011;51982;51.042;13.806;2023-04-01T18:25:43;9.73;;;5.40;;
65377;SDS011;51982;51.042;13.806;2023-04-01T18:28:24;8.05;;;4.72;;
65377;SDS011;51982;51.042;13.806;2023-04-01T18:33:41;4.18;;;3.22;;
65377;SDS011;51982;51.042;13.806;2023-04-01T18:36:16;3.33;;;2.17;;
65377;SDS011;51982;51.042;13.806;2023-04-01T18:38:53;3.15;;;2.00;;
65377;SDS011;51982;51.042;13.806;2023-04-01T18:41:35;4.37;;;2.40;;
65377;SDS011;51982;51.042;13.806;2023-04-01T18:44:29;3.60;;;2.88;;
65377;SDS011;51982;51.042;13.806;2023-04-01T18:47:15;5.32;;;3.00;;
65377;SDS011;51982;51.042;13.806;2023-04-01T18:52:44;5.80;;;3.55;;
65377;SDS011;51982;51.042;13.806;2023-04-01T19:00:44;6.53;;;3.78;;
65377;SDS011;51982;51.042;13.806;2023-04-01T19:06:08;7.22;;;4.18;;
65377;SDS011;51982;51.042;13.806;2023-04-01T19:08:42;8.25;;;4.03;;
65377;SDS011;51982;51.042;13.806;2023-04-01T19:11:18;6.10;;;4.50;;
65377;SDS011;51982;51.042;13.806;2023-04-01T19:17:45;5.75;;;4.00;;
65377;SDS011;51982;51.042;13.806;2023-04-01T19:25:54;5.40;;;3.22;;
65377;SDS011;51982;51.042;13.806;2023-04-01T19:28:37;5.70;;;3.72;;
65377;SDS011;51982;51.042;13.806;2023-04-01T19:37:02;5.90;;;3.65;;
65377;SDS011;51982;51.042;13.806;2023-04-01T19:39:49;5.97;;;3.40;;
65377;SDS011;51982;51.042;13.806;2023-04-01T19:42:33;5.68;;;3.47;;
65377;SDS011;51982;51.042;13.806;2023-04-01T19:45:22;7.03;;;4.65;;
65377;SDS011;51982;51.042;13.806;2023-04-01T19:47:57;10.93;;;4.97;;
65377;SDS011;51982;51.042;13.806;2023-04-01T19:53:11;5.95;;;4.38;;
65377;SDS011;51982;51.042;13.806;2023-04-01T19:55:45;6.22;;;4.00;;
65377;SDS011;51982;51.042;13.806;2023-04-01T20:00:57;14.20;;;6.63;;
65377;SDS011;51982;51.042;13.806;2023-04-01T20:03:25;8.60;;;4.90;;
65377;SDS011;51982;51.042;13.806;2023-04-01T20:06:13;13.40;;;6.10;;
65377;SDS011;51982;51.042;13.806;2023-04-01T20:18:08;10.27;;;4.93;;
65377;SDS011;51982;51.042;13.806;2023-04-01T20:20:40;6.97;;;4.20;;
65377;SDS011;51982;51.042;13.806;2023-04-01T20:23:24;6.57;;;4.15;;
65377;SDS011;51982;51.042;13.806;2023-04-01T20:26:00;9.15;;;4.43;;
65377;SDS011;51982;51.042;13.806;2023-04-01T20:28:36;9.98;;;4.40;;
65377;SDS011;51982;51.042;13.806;2023-04-01T20:31:11;6.32;;;4.07;;
65377;SDS011;51982;51.042;13.806;2023-04-01T20:36:43;5.95;;;3.88;;
65377;SDS011;51982;51.042;13.806;2023-04-01T20:45:37;8.15;;;3.67;;
65377;SDS011;51982;51.042;13.806;2023-04-01T20:51:06;6.20;;;4.20;;
65377;SDS011;51982;51.042;13.806;2023-04-01T20:53:36;6.38;;;4.43;;
65377;SDS011;51982;51.042;13.806;2023-04-01T20:56:17;5.47;;;3.83;;
65377;SDS011;51982;51.042;13.806;2023-04-01T21:03:54;6.32;;;4.15;;
65377;SDS011;51982;51.042;13.806;2023-04-01T21:09:53;5.57;;;3.95;;
65377;SDS011;51982;51.042;13.806;2023-04-01T21:12:50;6.65;;;4.25;;
65377;SDS011;51982;51.042;13.806;2023-04-01T21:15:30;5.80;;;4.35;;
65377;SDS011;51982;51.042;13.806;2023-04-01T21:23:54;8.00;;;5.05;;
65377;SDS011;51982;51.042;13.806;2023-04-01T21:32:23;5.38;;;3.35;;
65377;SDS011;51982;51.042;13.806;2023-04-01T21:34:58;4.85;;;3.13;;
65377;SDS011;51982;51.042;13.806;2023-04-01T21:43:01;6.18;;;3.75;;
65377;SDS011;51982;51.042;13.806;2023-04-01T22:00:07;1.17;;;0.90;;
65377;SDS011;51982;51.042;13.806;2023-04-01T22:02:48;1.65;;;1.30;;
65377;SDS011;51982;51.042;13.806;2023-04-01T22:05:28;1.55;;;0.90;;
65377;SDS011;51982;51.042;13.806;2023-04-01T22:10:38;1.10;;;0.73;;
65377;SDS011;51982;51.042;13.806;2023-04-01T22:13:20;1.23;;;0.63;;
65377;SDS011;51982;51.042;13.806;2023-04-01T22:15:59;4.00;;;0.73;;
65377;SDS011;51982;51.042;13.806;2023-04-01T22:18:34;2.55;;;0.82;;
65377;SDS011;51982;51.042;13.806;2023-04-01T22:23:59;3.30;;;0.90;;
65377;SDS011;51982;51.042;13.806;2023-04-01T22:32:27;9.95;;;1.33;;
65377;SDS011;51982;51.042;13.806;2023-04-01T22:35:04;5.82;;;1.25;;
65377;SDS011;51982;51.042;13.806;2023-04-01T22:37:53;1.30;;;1.00;;
65377;SDS011;51982;51.042;13.806;2023-04-01T22:40:39;6.72;;;1.10;;
65377;SDS011;51982;51.042;13.806;2023-04-01T22:49:02;4.78;;;1.20;;
65377;SDS011;51982;51.042;13.806;2023-04-01T22:54:30;26.90;;;1.75;;
65377;SDS011;51982;51.042;13.806;2023-04-01T22:59:38;1.77;;;1.20;;
65377;SDS011;51982;51.042;13.806;2023-04-01T23:02:30;1.75;;;1.30;;
65377;SDS011;51982;51.042;13.806;2023-04-01T23:05:00;2.70;;;1.70;;
65377;SDS011;51982;51.042;13.806;2023-04-01T23:07:37;2.47;;;1.77;;
65377;SDS011;51982;51.042;13.806;2023-04-01T23:13:06;2.45;;;1.92;;
65377;SDS011;51982;51.042;13.806;2023-04-01T23:15:38;3.92;;;2.35;;
65377;SDS011;51982;51.042;13.806;2023-04-01T23:18:12;5.22;;;2.67;;
65377;SDS011;51982;51.042;13.806;2023-04-01T23:26:32;9.00;;;2.53;;
65377;SDS011;51982;51.042;13.806;2023-04-01T23:29:13;4.38;;;2.75;;
65377;SDS011;51982;51.042;13.806;2023-04-01T23:32:02;4.53;;;2.88;;
65377;SDS011;51982;51.042;13.806;2023-04-01T23:34:34;3.88;;;2.47;;
65377;SDS011;51982;51.042;13.806;2023-04-01T23:37:01;4.10;;;2.60;;
65377;SDS011;51982;51.042;13.806;2023-04-01T23:39:33;2.60;;;2.00;;
65377;SDS011;51982;51.042;13.806;2023-04-01T23:42:03;2.70;;;2.03;;
65377;SDS011;51982;51.042;13.806;2023-04-01T23:44:31;4.18;;;2.70;;
65377;SDS011;51982;51.042;13.806;2023-04-01T23:46:58;3.28;;;2.40;;